Time;durP1;ratioP1;P1;durP2;ratioP2;P2;SDS_P1;SDS_P2;PMS_P1;PMS_P2;Temp;Humidity;BMP_temperature;BMP_pressure;BME280_temperature;BME280_humidity;BME280_pressure;Samples;Min_cycle;Max_cycle;Signal;HPM_P1;HPM_P2
2021/09/06 00:00:44;;;;;;;17.43;12.17;;;15.90;94.00;;;;;;5051464;28;20961;-67
2021/09/06 00:03:11;;;;;;;16.03;9.17;;;16.20;94.10;;;;;;5052633;28;20472;-67
2021/09/06 00:05:39;;;;;;;16.67;9.87;;;16.20;93.60;;;;;;5052694;28;20428;-69
2021/09/06 00:08:06;;;;;;;15.87;8.87;;;16.20;92.50;;;;;;5053346;28;20409;-68
2021/09/06 00:10:46;;;;;;;16.30;9.57;;;16.30;92.70;;;;;;5053155;28;20496;-70
2021/09/06 00:13:17;;;;;;;15.53;8.07;;;16.50;92.70;;;;;;5053003;28;20934;-69
2021/09/06 00:15:45;;;;;;;14.90;6.83;;;16.50;90.70;;;;;;5052280;28;20432;-68
2021/09/06 00:18:12;;;;;;;15.30;7.73;;;16.50;90.60;;;;;;5059006;28;20500;-70
2021/09/06 00:20:41;;;;;;;15.93;9.03;;;16.50;90.60;;;;;;5046882;28;20464;-67
2021/09/06 00:23:10;;;;;;;15.43;7.63;;;16.40;90.50;;;;;;5042798;28;20216;-67
2021/09/06 00:25:38;;;;;;;16.17;8.87;;;16.80;90.20;;;;;;5042171;28;20442;-66
2021/09/06 00:28:06;;;;;;;16.40;9.40;;;17.00;87.80;;;;;;5051904;28;20440;-71
2021/09/06 00:30:37;;;;;;;16.37;9.63;;;16.90;87.10;;;;;;5051894;28;20417;-67
2021/09/06 00:33:05;;;;;;;15.57;8.13;;;17.10;84.40;;;;;;5052184;28;20467;-69
2021/09/06 00:35:33;;;;;;;15.17;7.33;;;17.10;81.40;;;;;;5052492;28;20421;-71
2021/09/06 00:38:00;;;;;;;14.83;6.37;;;17.10;81.80;;;;;;5052975;28;20204;-70
2021/09/06 00:40:28;;;;;;;16.47;8.60;;;17.30;81.70;;;;;;5051920;28;20182;-67
2021/09/06 00:42:55;;;;;;;15.90;7.90;;;17.50;80.20;;;;;;5052706;28;20203;-67
2021/09/06 00:45:23;;;;;;;15.63;7.70;;;17.40;79.40;;;;;;5050874;28;20197;-71
2021/09/06 00:47:50;;;;;;;15.43;7.27;;;17.40;79.50;;;;;;5051152;28;20203;-66
2021/09/06 00:50:19;;;;;;;16.30;8.87;;;17.50;78.90;;;;;;5051698;28;20708;-66
2021/09/06 00:52:48;;;;;;;15.10;6.10;;;17.70;79.10;;;;;;5051979;28;20612;-66
2021/09/06 00:55:17;;;;;;;16.10;8.13;;;17.90;77.70;;;;;;5050584;28;20182;-67
2021/09/06 00:57:46;;;;;;;18.13;9.43;;;17.70;76.50;;;;;;5050121;28;20713;-67
2021/09/06 01:00:15;;;;;;;15.57;7.93;;;17.80;76.30;;;;;;5037404;28;20429;-67
2021/09/06 01:02:43;;;;;;;16.60;9.37;;;17.80;76.30;;;;;;5050679;28;20585;-66
2021/09/06 01:05:14;;;;;;;17.03;8.20;;;18.10;73.70;;;;;;5046968;28;20231;-68
2021/09/06 01:07:42;;;;;;;15.47;7.57;;;18.30;73.20;;;;;;5046792;28;20244;-67
2021/09/06 01:10:12;;;;;;;13.27;6.50;;;18.50;73.10;;;;;;5042739;28;20422;-67
2021/09/06 01:12:40;;;;;;;15.63;8.30;;;18.10;72.70;;;;;;5043111;28;20801;-67
2021/09/06 01:15:09;;;;;;;17.07;9.83;;;18.30;73.10;;;;;;5053172;28;20209;-68
2021/09/06 01:17:37;;;;;;;15.80;8.00;;;18.60;72.80;;;;;;5053823;28;20911;-67
2021/09/06 01:20:06;;;;;;;16.17;8.77;;;18.00;72.40;;;;;;5052052;28;20180;-69
2021/09/06 01:22:33;;;;;;;18.50;9.27;;;18.40;72.10;;;;;;5052879;28;20211;-67
2021/09/06 01:25:01;;;;;;;14.43;6.20;;;18.60;70.90;;;;;;5047150;28;20176;-67
2021/09/06 01:27:29;;;;;;;15.27;7.13;;;18.90;71.10;;;;;;5052012;28;20520;-67
2021/09/06 01:29:56;;;;;;;14.67;6.27;;;18.80;70.80;;;;;;5052222;28;20183;-67
2021/09/06 01:32:24;;;;;;;14.13;5.17;;;18.40;72.20;;;;;;5051343;28;20236;-67
2021/09/06 01:34:51;;;;;;;17.90;6.80;;;18.10;72.60;;;;;;5051922;28;20183;-67
2021/09/06 01:37:19;;;;;;;15.77;7.97;;;18.10;71.90;;;;;;5051702;28;20656;-66
2021/09/06 01:39:46;;;;;;;15.23;7.00;;;18.70;71.80;;;;;;5051652;28;20183;-65
2021/09/06 01:42:14;;;;;;;14.73;6.87;;;18.70;70.30;;;;;;5051743;28;20295;-67
2021/09/06 01:44:41;;;;;;;15.43;8.17;;;18.90;71.50;;;;;;5048446;28;20201;-66
2021/09/06 01:47:09;;;;;;;14.83;7.10;;;18.70;70.60;;;;;;5042219;28;20550;-66
2021/09/06 01:49:36;;;;;;;14.47;6.83;;;18.70;72.00;;;;;;5048313;28;20618;-67
2021/09/06 01:52:04;;;;;;;15.57;8.17;;;18.70;71.10;;;;;;5040160;28;20189;-66
2021/09/06 01:54:31;;;;;;;13.03;6.93;;;18.90;70.80;;;;;;5049086;28;20176;-66
2021/09/06 01:56:59;;;;;;;14.83;6.70;;;19.20;71.10;;;;;;5055188;28;20278;-67
2021/09/06 01:59:26;;;;;;;12.40;6.40;;;19.20;71.90;;;;;;5055854;28;20269;-64
2021/09/06 02:01:54;;;;;;;12.73;6.40;;;19.30;72.10;;;;;;5055018;28;20224;-66
2021/09/06 02:04:22;;;;;;;13.47;7.80;;;19.20;71.50;;;;;;5055156;28;20175;-66
2021/09/06 02:06:49;;;;;;;12.33;6.00;;;19.30;71.40;;;;;;5054962;28;20178;-67
2021/09/06 02:09:16;;;;;;;16.30;8.90;;;19.10;72.80;;;;;;5053579;28;20188;-66
2021/09/06 02:11:44;;;;;;;13.00;7.30;;;19.20;71.90;;;;;;5053549;28;20192;-68
2021/09/06 02:14:11;;;;;;;15.00;10.63;;;19.00;72.80;;;;;;5052885;28;20194;-67
2021/09/06 02:16:38;;;;;;;14.57;9.10;;;18.70;73.00;;;;;;5053036;28;20194;-67
2021/09/06 02:19:06;;;;;;;13.50;6.73;;;18.60;74.40;;;;;;5046607;28;20184;-70
2021/09/06 02:21:33;;;;;;;14.13;6.13;;;18.60;75.50;;;;;;5054333;28;20205;-67
2021/09/06 02:24:02;;;;;;;14.47;8.27;;;18.50;73.80;;;;;;5048416;28;20230;-65
2021/09/06 02:26:32;;;;;;;12.87;6.67;;;19.00;74.90;;;;;;5047622;28;20223;-67
2021/09/06 02:28:59;;;;;;;399.47;118.87;;;19.40;74.10;;;;;;5054124;28;20585;-68
2021/09/06 02:31:26;;;;;;;216.53;62.53;;;19.60;73.60;;;;;;5055351;28;20895;-67
2021/09/06 02:33:54;;;;;;;429.67;133.57;;;19.70;74.20;;;;;;5052464;28;20187;-65
2021/09/06 02:36:21;;;;;;;26.43;9.77;;;20.10;73.40;;;;;;5049152;28;20463;-67
2021/09/06 02:38:49;;;;;;;389.70;118.87;;;20.00;74.10;;;;;;5052290;28;20180;-67
2021/09/06 02:41:16;;;;;;;24.97;9.37;;;20.30;73.90;;;;;;5053905;28;20735;-68
2021/09/06 02:43:43;;;;;;;898.70;284.67;;;20.10;74.30;;;;;;5053980;28;20586;-67
2021/09/06 02:46:11;;;;;;;612.73;189.90;;;20.20;74.70;;;;;;5049733;28;20424;-68
2021/09/06 02:48:38;;;;;;;390.60;120.87;;;20.40;74.20;;;;;;5053231;28;20421;-68
2021/09/06 02:51:06;;;;;;;428.00;131.00;;;20.50;73.70;;;;;;5054734;28;20474;-66
2021/09/06 02:53:33;;;;;;;15.57;11.10;;;20.30;73.90;;;;;;5053489;28;20436;-66
2021/09/06 02:56:01;;;;;;;15.17;10.57;;;20.50;73.90;;;;;;5043041;28;20184;-68
2021/09/06 02:58:28;;;;;;;13.67;7.37;;;20.70;73.50;;;;;;5054024;28;20199;-68
2021/09/06 03:00:55;;;;;;;611.23;194.13;;;20.70;73.20;;;;;;5048802;28;20234;-69
2021/09/06 03:03:23;;;;;;;633.23;203.67;;;20.50;74.00;;;;;;5050284;28;20484;-68
2021/09/06 03:05:51;;;;;;;656.03;210.00;;;20.60;74.10;;;;;;5058396;28;20428;-68
2021/09/06 03:08:20;;;;;;;637.30;208.07;;;20.60;73.80;;;;;;5053504;28;20524;-68
2021/09/06 03:10:47;;;;;;;433.70;134.57;;;20.90;73.50;;;;;;5052220;28;20989;-69
2021/09/06 03:13:14;;;;;;;37.17;11.07;;;21.00;72.20;;;;;;5052284;28;20777;-69
2021/09/06 03:15:42;;;;;;;370.27;117.33;;;20.60;71.90;;;;;;5052655;28;20237;-68
2021/09/06 03:18:09;;;;;;;639.53;205.73;;;20.60;72.20;;;;;;5048708;28;20509;-67
2021/09/06 03:20:36;;;;;;;648.40;212.87;;;20.60;72.80;;;;;;5051629;28;20421;-69
2021/09/06 03:23:04;;;;;;;57.57;16.27;;;20.40;73.30;;;;;;5045710;28;20479;-68
2021/09/06 03:25:31;;;;;;;166.40;45.60;;;20.80;73.00;;;;;;5051534;28;20683;-70
2021/09/06 03:27:58;;;;;;;681.97;204.20;;;21.30;72.30;;;;;;5053407;28;20680;-69
2021/09/06 03:30:26;;;;;;;43.97;14.97;;;21.60;70.70;;;;;;5050248;28;20920;-70
2021/09/06 03:32:53;;;;;;;739.73;206.47;;;21.30;70.70;;;;;;5051049;28;20237;-69
2021/09/06 03:35:20;;;;;;;504.50;135.03;;;21.10;70.90;;;;;;5045795;28;20999;-69
2021/09/06 03:37:48;;;;;;;1063.70;300.57;;;20.60;71.90;;;;;;5050581;28;20179;-68
2021/09/06 03:40:15;;;;;;;248.03;73.70;;;21.10;71.70;;;;;;5052754;28;20443;-68
2021/09/06 03:42:42;;;;;;;727.63;214.03;;;21.10;71.10;;;;;;5052395;28;20248;-69
2021/09/06 03:45:12;;;;;;;711.13;199.80;;;21.20;70.30;;;;;;5046042;28;20954;-69
2021/09/06 03:47:39;;;;;;;726.97;215.23;;;21.70;69.30;;;;;;5052942;28;20428;-68
2021/09/06 03:50:07;;;;;;;741.37;212.43;;;21.40;67.20;;;;;;5048639;28;20436;-68
2021/09/06 03:52:34;;;;;;;747.77;213.07;;;21.20;68.10;;;;;;5051356;28;20498;-67
2021/09/06 03:55:01;;;;;;;659.63;207.43;;;21.10;68.20;;;;;;5051140;28;20915;-68
2021/09/06 03:57:29;;;;;;;688.57;214.97;;;21.70;68.00;;;;;;5048943;28;20434;-68
2021/09/06 03:59:56;;;;;;;703.07;220.47;;;21.50;66.60;;;;;;5048417;28;20420;-70
2021/09/06 04:02:23;;;;;;;680.53;214.17;;;20.90;67.40;;;;;;5051976;28;20503;-68
2021/09/06 04:04:53;;;;;;;627.10;207.67;;;21.30;67.50;;;;;;5047138;28;20790;-67
2021/09/06 04:07:20;;;;;;;392.20;121.57;;;21.20;67.00;;;;;;5046267;28;20895;-68
2021/09/06 04:09:48;;;;;;;948.03;306.63;;;21.30;68.90;;;;;;5051086;28;20274;-68
2021/09/06 04:12:15;;;;;;;697.67;211.33;;;21.50;70.50;;;;;;5039322;28;20421;-69
2021/09/06 04:14:42;;;;;;;679.57;218.30;;;21.50;70.20;;;;;;5048995;28;20433;-68
2021/09/06 04:17:10;;;;;;;712.70;222.00;;;22.00;69.00;;;;;;5050942;28;20429;-67
2021/09/06 04:19:37;;;;;;;725.37;219.67;;;22.10;68.20;;;;;;5042434;28;20451;-68
2021/09/06 04:22:05;;;;;;;472.37;131.43;;;21.80;68.10;;;;;;5046453;28;20432;-69
2021/09/06 04:24:33;;;;;;;742.77;221.57;;;21.50;68.90;;;;;;5049269;28;20184;-69
2021/09/06 04:27:00;;;;;;;754.97;467.63;;;21.80;68.90;;;;;;5051319;28;20507;-69
2021/09/06 04:29:27;;;;;;;515.67;197.03;;;22.10;68.00;;;;;;5045327;28;20683;-67
2021/09/06 04:31:55;;;;;;;1035.23;370.60;;;21.90;68.10;;;;;;5052152;28;20184;-69
2021/09/06 04:34:22;;;;;;;761.00;218.23;;;22.00;68.30;;;;;;5050480;28;20424;-68
2021/09/06 04:36:50;;;;;;;1089.07;547.60;;;21.80;69.70;;;;;;5050021;28;20504;-69
2021/09/06 04:39:17;;;;;;;757.90;270.23;;;21.50;69.20;;;;;;5048614;28;20776;-69
2021/09/06 04:41:44;;;;;;;714.47;209.53;;;21.80;69.30;;;;;;5050184;28;20470;-68
2021/09/06 04:44:12;;;;;;;757.53;219.73;;;22.10;70.10;;;;;;5051888;28;20555;-68
2021/09/06 04:46:39;;;;;;;1056.33;833.90;;;21.90;68.20;;;;;;5049585;28;20263;-66
2021/09/06 04:49:07;;;;;;;1115.03;690.47;;;21.90;67.10;;;;;;5046711;28;20445;-68
2021/09/06 04:51:34;;;;;;;1065.07;831.67;;;21.60;67.90;;;;;;5047288;28;20439;-67
2021/09/06 04:54:02;;;;;;;829.87;602.93;;;21.70;66.00;;;;;;5047041;28;20437;-66
2021/09/06 04:56:29;;;;;;;1077.20;483.67;;;21.70;63.60;;;;;;5052273;28;20211;-67
2021/09/06 04:58:57;;;;;;;1093.07;660.13;;;21.80;64.70;;;;;;5052441;28;20482;-67
2021/09/06 05:01:24;;;;;;;762.50;215.63;;;21.40;66.00;;;;;;5050312;28;20572;-67
2021/09/06 05:03:51;;;;;;;1061.10;307.77;;;21.10;65.80;;;;;;5051223;28;20484;-68
2021/09/06 05:06:19;;;;;;;743.60;212.37;;;21.10;65.70;;;;;;5051532;28;20895;-67
2021/09/06 05:08:46;;;;;;;774.73;232.13;;;21.40;68.10;;;;;;5051126;28;20783;-67
2021/09/06 05:11:16;;;;;;;1099.07;546.20;;;21.20;67.80;;;;;;5050758;28;20467;-68
2021/09/06 05:13:43;;;;;;;1159.30;808.17;;;21.20;68.80;;;;;;5045000;28;20421;-68
2021/09/06 05:16:11;;;;;;;1176.27;836.27;;;21.80;68.80;;;;;;5052355;28;20945;-68
2021/09/06 05:18:40;;;;;;;836.23;564.90;;;22.30;68.10;;;;;;5042523;28;20941;-66
2021/09/06 05:21:08;;;;;;;800.93;505.70;;;22.60;67.30;;;;;;5051689;28;20180;-68
2021/09/06 05:23:35;;;;;;;782.27;361.20;;;22.00;67.80;;;;;;5051574;28;20265;-70
2021/09/06 05:26:02;;;;;;;799.67;520.30;;;21.80;67.30;;;;;;5051721;28;20916;-67
2021/09/06 05:28:30;;;;;;;830.33;546.20;;;21.60;67.60;;;;;;5050934;28;20968;-68
2021/09/06 05:30:57;;;;;;;827.20;569.87;;;21.70;68.20;;;;;;5053639;28;20183;-68
2021/09/06 05:33:24;;;;;;;734.13;544.20;;;21.70;68.80;;;;;;5056556;28;20259;-68
2021/09/06 05:35:52;;;;;;;1054.07;835.60;;;21.80;69.50;;;;;;5052911;28;20199;-66
2021/09/06 05:38:19;;;;;;;748.80;575.33;;;21.60;69.60;;;;;;5056499;28;20778;-67
2021/09/06 05:40:46;;;;;;;704.13;539.43;;;21.60;69.70;;;;;;5046317;28;20668;-68
2021/09/06 05:43:14;;;;;;;1055.97;830.47;;;21.20;70.40;;;;;;5055462;28;20219;-69
2021/09/06 05:45:41;;;;;;;698.33;534.10;;;21.00;71.30;;;;;;5055376;28;20512;-68
2021/09/06 05:48:08;;;;;;;782.00;583.43;;;20.80;72.00;;;;;;5055296;28;20266;-67
2021/09/06 05:50:36;;;;;;;831.10;569.23;;;21.50;71.50;;;;;;5055983;28;20175;-68
2021/09/06 05:53:03;;;;;;;810.97;571.57;;;21.50;70.60;;;;;;5055700;28;20639;-67
2021/09/06 05:55:31;;;;;;;1034.47;785.33;;;21.50;70.00;;;;;;5055581;28;20533;-65
2021/09/06 05:57:58;;;;;;;1048.77;833.33;;;21.30;68.10;;;;;;5055652;28;20524;-66
2021/09/06 06:00:25;;;;;;;992.27;794.07;;;21.20;69.00;;;;;;5054878;28;20424;-67
2021/09/06 06:02:52;;;;;;;1129.87;834.23;;;21.10;70.30;;;;;;5055481;28;20499;-68
2021/09/06 06:05:20;;;;;;;799.73;569.07;;;21.10;68.00;;;;;;5055552;28;20774;-68
2021/09/06 06:07:47;;;;;;;523.13;369.40;;;21.60;68.10;;;;;;5049452;28;20188;-70
2021/09/06 06:10:15;;;;;;;1012.57;799.20;;;21.70;69.10;;;;;;5054720;28;20179;-66
2021/09/06 06:12:42;;;;;;;691.03;532.60;;;21.80;68.90;;;;;;5048460;28;20524;-69
2021/09/06 06:15:10;;;;;;;689.93;516.00;;;21.50;69.70;;;;;;5049129;28;20196;-66
2021/09/06 06:17:39;;;;;;;970.20;754.67;;;21.30;70.30;;;;;;5051359;28;20340;-67
2021/09/06 06:20:07;;;;;;;665.40;501.43;;;21.00;71.30;;;;;;5053417;28;20421;-67
2021/09/06 06:22:35;;;;;;;1012.77;795.47;;;21.10;72.40;;;;;;5050174;28;20261;-68
2021/09/06 06:25:02;;;;;;;1168.47;837.03;;;20.70;70.30;;;;;;5054805;28;20428;-67
2021/09/06 06:27:30;;;;;;;817.63;533.63;;;20.60;70.00;;;;;;5054733;28;20981;-68
2021/09/06 06:29:57;;;;;;;1126.70;723.37;;;20.70;71.00;;;;;;5052054;28;20531;-68
2021/09/06 06:32:24;;;;;;;522.17;273.43;;;21.10;71.50;;;;;;5054556;28;20993;-67
2021/09/06 06:34:52;;;;;;;1104.10;526.67;;;21.00;70.80;;;;;;5050578;28;20188;-68
2021/09/06 06:37:19;;;;;;;756.73;215.13;;;21.10;71.10;;;;;;5054886;28;20441;-67
2021/09/06 06:39:46;;;;;;;1055.33;310.20;;;21.00;71.00;;;;;;5052056;28;20425;-66
2021/09/06 06:42:14;;;;;;;1058.37;299.90;;;20.80;70.20;;;;;;5047488;28;20494;-67
2021/09/06 06:44:42;;;;;;;1052.53;308.37;;;20.50;70.80;;;;;;5053595;28;20429;-68
2021/09/06 06:47:09;;;;;;;752.13;210.30;;;20.30;71.90;;;;;;5043006;28;20437;-67
2021/09/06 06:49:36;;;;;;;753.47;206.10;;;20.40;72.70;;;;;;5052747;28;20768;-67
2021/09/06 06:52:04;;;;;;;1024.17;296.77;;;20.20;73.20;;;;;;5054817;28;20394;-67
2021/09/06 06:54:31;;;;;;;1018.47;302.80;;;20.00;74.20;;;;;;5053214;28;20440;-68
2021/09/06 06:56:59;;;;;;;711.30;209.07;;;19.60;75.70;;;;;;5054881;28;20402;-68
2021/09/06 06:59:26;;;;;;;1009.03;295.20;;;20.10;75.20;;;;;;5050990;28;20866;-68
2021/09/06 07:01:53;;;;;;;706.57;203.33;;;20.10;74.30;;;;;;5053569;28;20461;-67
2021/09/06 07:04:21;;;;;;;686.47;195.97;;;19.80;74.80;;;;;;5053676;28;20472;-68
2021/09/06 07:06:48;;;;;;;740.83;212.83;;;19.40;76.30;;;;;;5050158;28;20451;-68
2021/09/06 07:09:15;;;;;;;438.60;127.07;;;19.30;77.10;;;;;;5051936;28;20449;-68
2021/09/06 07:11:43;;;;;;;20.50;7.90;;;19.00;76.30;;;;;;5049766;28;20416;-69
2021/09/06 07:14:13;;;;;;;688.17;205.07;;;18.70;77.50;;;;;;5051904;28;20285;-68
2021/09/06 07:16:40;;;;;;;687.50;205.07;;;18.10;78.80;;;;;;5047746;28;20427;-65
2021/09/06 07:19:08;;;;;;;675.10;199.07;;;17.80;79.70;;;;;;5051016;28;20421;-68
2021/09/06 07:21:36;;;;;;;32.17;11.07;;;17.60;80.70;;;;;;5049910;28;20779;-65
2021/09/06 07:24:03;;;;;;;15.47;6.93;;;17.30;82.10;;;;;;5052601;28;20810;-66
2021/09/06 07:26:30;;;;;;;16.50;8.37;;;17.10;83.80;;;;;;5049461;28;20198;-68
2021/09/06 07:28:59;;;;;;;15.17;6.90;;;16.90;83.80;;;;;;5052634;28;20226;-68
2021/09/06 07:31:26;;;;;;;15.47;6.97;;;16.90;84.20;;;;;;5054061;28;20174;-68
2021/09/06 07:33:53;;;;;;;15.43;7.10;;;16.80;85.40;;;;;;5039706;28;20180;-67
2021/09/06 07:36:21;;;;;;;23.20;7.63;;;16.60;85.80;;;;;;5052444;28;20310;-67
2021/09/06 07:38:48;;;;;;;16.33;8.60;;;16.50;86.70;;;;;;5049928;28;20236;-67
2021/09/06 07:41:15;;;;;;;20.90;7.80;;;16.40;87.10;;;;;;5053853;28;20179;-68
2021/09/06 07:43:44;;;;;;;15.43;5.67;;;16.30;87.80;;;;;;5053297;28;20207;-67
2021/09/06 07:46:13;;;;;;;15.33;7.23;;;16.20;88.40;;;;;;5053849;28;20203;-67
2021/09/06 07:48:40;;;;;;;16.07;8.53;;;16.10;88.30;;;;;;5052593;28;20195;-65
2021/09/06 07:51:07;;;;;;;15.00;6.57;;;15.90;89.80;;;;;;5046488;28;20459;-66
2021/09/06 07:53:35;;;;;;;14.67;5.93;;;15.90;90.60;;;;;;5053660;28;20180;-68
2021/09/06 07:56:02;;;;;;;15.40;7.60;;;15.90;91.10;;;;;;5050669;28;20176;-67
2021/09/06 07:58:30;;;;;;;15.13;6.97;;;15.90;91.50;;;;;;5052478;28;20318;-66
2021/09/06 08:00:57;;;;;;;17.87;8.43;;;16.00;91.70;;;;;;5052873;28;20216;-67
2021/09/06 08:03:24;;;;;;;15.93;8.00;;;15.80;91.80;;;;;;5052608;28;20479;-66
2021/09/06 08:05:52;;;;;;;15.07;6.23;;;15.70;91.80;;;;;;5053224;28;20500;-67
2021/09/06 08:08:19;;;;;;;16.30;7.90;;;15.70;92.10;;;;;;5053493;28;20211;-67
2021/09/06 08:10:46;;;;;;;15.20;7.20;;;15.70;91.90;;;;;;5052968;28;20895;-67
2021/09/06 08:13:14;;;;;;;16.17;8.00;;;15.70;92.10;;;;;;5052316;28;20417;-67
2021/09/06 08:15:41;;;;;;;15.30;7.50;;;15.70;92.50;;;;;;5053275;28;20452;-68
2021/09/06 08:18:10;;;;;;;15.33;6.90;;;15.60;93.30;;;;;;5053634;28;20701;-66
2021/09/06 08:20:39;;;;;;;16.93;10.00;;;15.60;93.80;;;;;;5043456;28;20429;-67
2021/09/06 08:23:06;;;;;;;15.47;7.53;;;15.60;94.00;;;;;;5051014;28;20484;-69
2021/09/06 08:25:33;;;;;;;23.43;7.67;;;15.60;94.10;;;;;;5049018;28;20176;-68
2021/09/06 08:28:01;;;;;;;16.03;6.90;;;15.50;94.50;;;;;;5053105;28;20470;-67
2021/09/06 08:30:28;;;;;;;15.13;7.13;;;15.50;95.10;;;;;;5052821;28;20478;-68
2021/09/06 08:32:55;;;;;;;20.90;10.87;;;15.40;95.60;;;;;;5049869;28;20444;-67
2021/09/06 08:35:24;;;;;;;14.80;6.23;;;15.40;95.70;;;;;;5053336;28;20420;-66
2021/09/06 08:37:51;;;;;;;17.80;10.37;;;15.40;95.60;;;;;;5051881;28;20190;-67
2021/09/06 08:40:19;;;;;;;15.97;8.43;;;15.40;96.00;;;;;;5050311;28;20468;-67
2021/09/06 08:42:46;;;;;;;16.03;8.80;;;15.40;96.00;;;;;;5051312;28;20471;-66
2021/09/06 08:45:14;;;;;;;15.63;8.03;;;15.40;96.20;;;;;;5052825;28;20187;-66
2021/09/06 08:47:42;;;;;;;17.60;11.37;;;15.40;96.70;;;;;;5037851;28;20425;-67
2021/09/06 08:50:11;;;;;;;16.37;8.07;;;15.40;97.10;;;;;;5052866;28;20432;-66
2021/09/06 08:52:39;;;;;;;16.37;9.07;;;15.30;97.60;;;;;;5048908;28;20662;-67
2021/09/06 08:55:07;;;;;;;16.30;7.60;;;15.30;97.80;;;;;;5041460;28;20216;-68
2021/09/06 08:57:35;;;;;;;15.30;7.40;;;15.30;98.10;;;;;;5048925;28;20264;-68
2021/09/06 09:00:04;;;;;;;15.47;7.73;;;15.30;98.20;;;;;;5045120;28;20622;-67
2021/09/06 09:02:37;;;;;;;16.90;9.87;;;15.30;98.00;;;;;;5051820;28;20468;-66
2021/09/06 09:05:07;;;;;;;16.37;8.23;;;15.30;98.10;;;;;;5051894;28;20421;-66
2021/09/06 09:07:37;;;;;;;15.37;7.83;;;15.30;98.00;;;;;;5051079;28;20547;-69
2021/09/06 09:10:08;;;;;;;38.43;9.23;;;15.30;98.40;;;;;;5052208;28;20907;-66
2021/09/06 09:12:37;;;;;;;15.97;8.97;;;15.30;98.20;;;;;;5040129;28;20462;-67
2021/09/06 09:15:05;;;;;;;15.30;7.50;;;15.30;98.20;;;;;;5048176;28;20932;-67
2021/09/06 09:17:34;;;;;;;18.00;9.23;;;15.20;98.50;;;;;;5051652;28;20414;-68
2021/09/06 09:20:06;;;;;;;15.23;7.30;;;15.20;98.30;;;;;;5061265;28;20167;-67
2021/09/06 09:22:36;;;;;;;16.47;10.20;;;15.20;98.40;;;;;;5068712;28;20717;-67
2021/09/06 09:25:14;;;;;;;15.80;8.43;;;15.20;98.50;;;;;;5047881;28;20437;-68
2021/09/06 09:27:45;;;;;;;22.23;8.43;;;15.20;98.70;;;;;;5058628;28;20195;-68
2021/09/06 09:30:33;;;;;;;16.43;7.73;;;15.20;98.90;;;;;;5070676;28;20244;-68
2021/09/06 09:33:13;;;;;;;16.83;9.13;;;15.10;99.00;;;;;;5053776;28;20775;-68
2021/09/06 09:35:42;;;;;;;16.13;7.97;;;15.10;99.20;;;;;;5053360;28;20492;-68
2021/09/06 09:38:12;;;;;;;16.07;8.80;;;15.10;99.30;;;;;;5060651;28;20332;-67
2021/09/06 09:40:46;;;;;;;15.93;8.30;;;15.10;99.40;;;;;;5068071;28;20204;-69
2021/09/06 09:43:13;;;;;;;15.10;7.13;;;15.10;99.50;;;;;;5064985;28;20265;-68
2021/09/06 09:45:41;;;;;;;19.30;8.30;;;15.00;99.70;;;;;;5072078;28;20417;-68
2021/09/06 09:48:09;;;;;;;15.53;7.10;;;15.00;99.90;;;;;;5058451;28;20884;-68
2021/09/06 09:50:37;;;;;;;15.67;8.60;;;15.10;99.70;;;;;;5053973;28;20444;-68
2021/09/06 09:53:05;;;;;;;19.03;8.27;;;15.00;99.90;;;;;;5065567;28;20420;-68
2021/09/06 09:55:34;;;;;;;15.20;7.53;;;15.00;99.80;;;;;;5056942;28;20428;-66
2021/09/06 09:58:01;;;;;;;15.07;7.17;;;15.00;99.90;;;;;;5057878;28;20210;-68
2021/09/06 10:00:29;;;;;;;28.10;8.60;;;15.00;99.90;;;;;;5052065;28;20409;-66
2021/09/06 10:03:02;;;;;;;19.63;10.47;;;14.90;99.90;;;;;;5050566;28;20383;-65
2021/09/06 10:05:32;;;;;;;15.30;7.47;;;14.90;99.90;;;;;;5053474;28;20413;-68
2021/09/06 10:08:02;;;;;;;16.13;6.77;;;14.80;99.90;;;;;;5056215;28;20472;-67
2021/09/06 10:10:37;;;;;;;22.40;8.80;;;14.80;99.90;;;;;;5053689;28;20425;-67
2021/09/06 10:13:11;;;;;;;15.43;7.50;;;14.80;99.90;;;;;;5051997;28;20429;-67
2021/09/06 10:15:44;;;;;;;15.40;7.67;;;14.70;99.90;;;;;;5051503;28;20470;-67
2021/09/06 10:18:19;;;;;;;15.27;7.47;;;14.70;99.90;;;;;;5055371;28;20417;-67
2021/09/06 10:20:52;;;;;;;18.23;8.17;;;14.70;99.90;;;;;;5055097;28;20482;-68
2021/09/06 10:23:20;;;;;;;15.90;8.40;;;14.60;99.90;;;;;;5045269;28;20482;-67
2021/09/06 10:25:51;;;;;;;14.80;6.60;;;14.60;99.90;;;;;;5054967;28;20421;-67
2021/09/06 10:28:18;;;;;;;14.60;6.40;;;14.50;99.90;;;;;;5054132;28;20511;-67
2021/09/06 10:30:51;;;;;;;17.23;10.30;;;14.50;99.90;;;;;;5054329;28;20486;-67
2021/09/06 10:33:38;;;;;;;15.13;7.43;;;14.50;99.90;;;;;;5044032;28;21039;-67
2021/09/06 10:36:13;;;;;;;14.90;7.17;;;14.40;99.90;;;;;;5054375;28;20433;-67
2021/09/06 10:38:52;;;;;;;15.60;8.60;;;14.40;99.90;;;;;;5054687;28;20424;-67
2021/09/06 10:41:22;;;;;;;15.00;7.17;;;14.40;99.90;;;;;;5052133;28;20429;-66
2021/09/06 10:43:51;;;;;;;14.77;6.90;;;14.30;99.90;;;;;;5054151;28;20796;-67
2021/09/06 10:46:21;;;;;;;16.07;8.47;;;14.20;99.90;;;;;;5054450;28;20468;-67
2021/09/06 10:48:50;;;;;;;18.80;10.97;;;14.20;99.90;;;;;;5054482;28;20429;-67
2021/09/06 10:51:28;;;;;;;15.57;8.53;;;14.10;99.90;;;;;;5055091;28;20425;-67
2021/09/06 10:54:02;;;;;;;16.33;9.70;;;14.10;99.90;;;;;;5047627;28;20440;-68
2021/09/06 10:56:31;;;;;;;14.90;7.23;;;14.00;99.90;;;;;;5053579;28;20428;-67
2021/09/06 10:59:00;;;;;;;15.83;8.17;;;13.90;99.90;;;;;;5055079;28;20417;-67
2021/09/06 11:01:27;;;;;;;16.00;8.13;;;13.90;99.90;;;;;;5050614;28;20797;-67
2021/09/06 11:03:54;;;;;;;14.83;7.20;;;13.80;99.90;;;;;;5051795;28;20487;-67
2021/09/06 11:06:25;;;;;;;17.33;9.37;;;13.80;99.90;;;;;;5054521;28;20431;-67
2021/09/06 11:08:53;;;;;;;17.37;10.83;;;13.70;99.90;;;;;;5054511;28;20417;-67
2021/09/06 11:11:21;;;;;;;14.83;7.40;;;13.70;99.90;;;;;;5053738;28;20421;-67
2021/09/06 11:13:52;;;;;;;14.90;7.10;;;13.60;99.90;;;;;;5049526;28;20449;-67
2021/09/06 11:16:20;;;;;;;14.73;6.90;;;13.60;99.90;;;;;;5054145;28;20934;-67
2021/09/06 11:18:51;;;;;;;15.40;8.20;;;13.50;99.90;;;;;;5052910;28;20433;-67
2021/09/06 11:21:22;;;;;;;15.67;8.03;;;13.50;99.90;;;;;;5053647;28;20796;-67
2021/09/06 11:23:51;;;;;;;15.30;8.40;;;13.40;99.90;;;;;;5047007;28;20558;-67
2021/09/06 11:26:33;;;;;;;14.90;7.33;;;13.40;99.90;;;;;;5053905;28;20419;-67
2021/09/06 11:29:01;;;;;;;18.87;11.27;;;13.30;99.90;;;;;;5084702;28;20445;-67
2021/09/06 11:31:29;;;;;;;15.73;8.53;;;13.30;99.90;;;;;;5049065;28;20433;-67
2021/09/06 11:34:01;;;;;;;17.43;12.53;;;13.20;99.90;;;;;;5050854;28;21069;-66
2021/09/06 11:36:30;;;;;;;15.20;7.60;;;13.10;99.90;;;;;;5051810;28;20485;-67
2021/09/06 11:38:59;;;;;;;15.83;9.60;;;13.00;99.90;;;;;;5053732;28;20459;-67
2021/09/06 11:41:27;;;;;;;15.77;8.87;;;13.10;99.90;;;;;;5053478;28;20421;-67
2021/09/06 11:43:54;;;;;;;20.73;9.67;;;13.10;99.90;;;;;;5053710;28;21007;-67
2021/09/06 11:46:22;;;;;;;15.13;7.80;;;13.10;99.90;;;;;;5054346;28;20770;-68
2021/09/06 11:48:52;;;;;;;15.20;8.13;;;13.00;99.90;;;;;;5052953;28;20432;-67
2021/09/06 11:51:24;;;;;;;14.93;7.53;;;13.00;99.90;;;;;;5053698;28;20506;-68
2021/09/06 11:53:59;;;;;;;15.17;8.20;;;13.00;99.90;;;;;;5054989;28;20791;-66
2021/09/06 11:56:27;;;;;;;15.10;7.80;;;12.90;99.90;;;;;;5057938;28;20439;-68
2021/09/06 11:59:00;;;;;;;14.77;7.17;;;12.80;99.90;;;;;;5039477;28;20440;-67
2021/09/06 12:01:28;;;;;;;27.63;9.13;;;12.80;99.90;;;;;;5049176;28;20465;-67
2021/09/06 12:04:09;;;;;;;15.30;7.90;;;12.80;99.90;;;;;;5052043;28;20465;-67
2021/09/06 12:06:39;;;;;;;15.60;8.57;;;12.80;99.90;;;;;;5053578;28;20396;-67
2021/09/06 12:09:08;;;;;;;17.77;9.87;;;12.70;99.90;;;;;;5051708;28;20433;-66
2021/09/06 12:11:46;;;;;;;20.83;8.07;;;12.70;99.90;;;;;;5050558;28;20417;-67
2021/09/06 12:14:14;;;;;;;17.03;11.27;;;12.70;99.90;;;;;;5050031;28;20424;-67
2021/09/06 12:16:42;;;;;;;23.17;10.77;;;12.70;99.90;;;;;;5050929;28;20460;-66
2021/09/06 12:19:20;;;;;;;15.10;7.70;;;12.60;99.90;;;;;;5051836;28;20546;-67
2021/09/06 12:21:50;;;;;;;15.40;7.77;;;12.60;99.90;;;;;;5048938;28;20429;-66
2021/09/06 12:24:27;;;;;;;18.27;9.13;;;12.50;99.90;;;;;;5052466;28;20469;-67
2021/09/06 12:26:55;;;;;;;15.90;7.90;;;12.50;99.90;;;;;;5059951;28;20504;-66
2021/09/06 12:29:33;;;;;;;14.97;7.63;;;12.50;99.90;;;;;;5067022;28;20431;-67
2021/09/06 12:32:02;;;;;;;15.13;7.70;;;12.40;99.90;;;;;;5068083;28;20931;-66